sensor_id;sensor_type;location;lat;lon;timestamp;P1;durP1;ratioP1;P2;durP2;ratioP2
71303;SDS011;59091;47.446;19.148;2023-09-30T00:01:54;25.90;;;13.07;;
71303;SDS011;59091;47.446;19.148;2023-09-30T00:04:20;21.92;;;13.75;;
71303;SDS011;59091;47.446;19.148;2023-09-30T00:06:45;19.25;;;13.13;;
71303;SDS011;59091;47.446;19.148;2023-09-30T00:09:11;20.77;;;13.45;;
71303;SDS011;59091;47.446;19.148;2023-09-30T00:11:36;30.70;;;13.32;;
71303;SDS011;59091;47.446;19.148;2023-09-30T00:14:02;24.20;;;12.80;;
71303;SDS011;59091;47.446;19.148;2023-09-30T00:16:28;20.83;;;13.68;;
71303;SDS011;59091;47.446;19.148;2023-09-30T00:18:53;20.83;;;13.85;;
71303;SDS011;59091;47.446;19.148;2023-09-30T00:21:19;26.55;;;13.55;;
71303;SDS011;59091;47.446;19.148;2023-09-30T00:23:44;22.80;;;14.27;;
71303;SDS011;59091;47.446;19.148;2023-09-30T00:26:10;29.88;;;13.65;;
71303;SDS011;59091;47.446;19.148;2023-09-30T00:28:35;21.90;;;13.25;;
71303;SDS011;59091;47.446;19.148;2023-09-30T00:31:01;23.67;;;14.27;;
71303;SDS011;59091;47.446;19.148;2023-09-30T00:33:26;23.58;;;13.48;;
71303;SDS011;59091;47.446;19.148;2023-09-30T00:35:51;24.00;;;13.95;;
71303;SDS011;59091;47.446;19.148;2023-09-30T00:38:17;25.73;;;14.07;;
71303;SDS011;59091;47.446;19.148;2023-09-30T00:40:49;21.85;;;13.60;;
71303;SDS011;59091;47.446;19.148;2023-09-30T00:43:18;20.50;;;13.35;;
71303;SDS011;59091;47.446;19.148;2023-09-30T00:45:44;23.13;;;13.50;;
71303;SDS011;59091;47.446;19.148;2023-09-30T00:48:10;26.13;;;14.20;;
71303;SDS011;59091;47.446;19.148;2023-09-30T00:50:35;25.15;;;13.48;;
71303;SDS011;59091;47.446;19.148;2023-09-30T00:53:01;24.50;;;13.57;;
71303;SDS011;59091;47.446;19.148;2023-09-30T00:55:27;24.17;;;13.25;;
71303;SDS011;59091;47.446;19.148;2023-09-30T00:57:52;22.70;;;13.45;;
71303;SDS011;59091;47.446;19.148;2023-09-30T01:00:18;20.40;;;13.80;;
71303;SDS011;59091;47.446;19.148;2023-09-30T01:02:44;21.10;;;12.88;;
71303;SDS011;59091;47.446;19.148;2023-09-30T01:05:10;22.35;;;13.30;;
71303;SDS011;59091;47.446;19.148;2023-09-30T01:07:35;18.38;;;13.40;;
71303;SDS011;59091;47.446;19.148;2023-09-30T01:10:02;25.63;;;13.27;;
71303;SDS011;59091;47.446;19.148;2023-09-30T01:12:28;19.67;;;13.55;;
71303;SDS011;59091;47.446;19.148;2023-09-30T01:14:59;26.55;;;13.68;;
71303;SDS011;59091;47.446;19.148;2023-09-30T01:17:25;22.65;;;13.73;;
71303;SDS011;59091;47.446;19.148;2023-09-30T01:19:51;24.08;;;13.63;;
71303;SDS011;59091;47.446;19.148;2023-09-30T01:22:18;22.90;;;13.85;;
71303;SDS011;59091;47.446;19.148;2023-09-30T01:24:43;21.88;;;13.20;;
71303;SDS011;59091;47.446;19.148;2023-09-30T01:27:11;22.83;;;13.50;;
71303;SDS011;59091;47.446;19.148;2023-09-30T01:29:38;20.45;;;12.63;;
71303;SDS011;59091;47.446;19.148;2023-09-30T01:32:04;20.38;;;13.27;;
71303;SDS011;59091;47.446;19.148;2023-09-30T01:34:33;17.00;;;12.77;;
71303;SDS011;59091;47.446;19.148;2023-09-30T01:36:59;20.38;;;13.68;;
71303;SDS011;59091;47.446;19.148;2023-09-30T01:39:25;19.15;;;12.68;;
71303;SDS011;59091;47.446;19.148;2023-09-30T01:41:50;19.40;;;12.68;;
71303;SDS011;59091;47.446;19.148;2023-09-30T01:44:15;20.60;;;12.85;;
71303;SDS011;59091;47.446;19.148;2023-09-30T01:46:41;24.17;;;14.00;;
71303;SDS011;59091;47.446;19.148;2023-09-30T01:49:06;17.45;;;12.75;;
71303;SDS011;59091;47.446;19.148;2023-09-30T01:51:32;33.28;;;13.27;;
71303;SDS011;59091;47.446;19.148;2023-09-30T01:53:57;20.95;;;12.85;;
71303;SDS011;59091;47.446;19.148;2023-09-30T01:56:23;19.75;;;12.88;;
71303;SDS011;59091;47.446;19.148;2023-09-30T01:58:48;19.80;;;13.15;;
71303;SDS011;59091;47.446;19.148;2023-09-30T02:01:14;20.85;;;13.90;;
71303;SDS011;59091;47.446;19.148;2023-09-30T02:03:40;20.38;;;13.35;;
71303;SDS011;59091;47.446;19.148;2023-09-30T02:06:06;23.83;;;14.10;;
71303;SDS011;59091;47.446;19.148;2023-09-30T02:08:32;26.05;;;14.68;;
71303;SDS011;59091;47.446;19.148;2023-09-30T02:11:00;22.17;;;14.25;;
71303;SDS011;59091;47.446;19.148;2023-09-30T02:13:25;22.40;;;14.93;;
71303;SDS011;59091;47.446;19.148;2023-09-30T02:15:50;23.27;;;15.40;;
71303;SDS011;59091;47.446;19.148;2023-09-30T02:18:17;27.95;;;15.68;;
71303;SDS011;59091;47.446;19.148;2023-09-30T02:20:42;26.40;;;15.95;;
71303;SDS011;59091;47.446;19.148;2023-09-30T02:23:10;24.08;;;14.77;;
71303;SDS011;59091;47.446;19.148;2023-09-30T02:25:36;22.63;;;14.93;;
71303;SDS011;59091;47.446;19.148;2023-09-30T02:28:05;25.00;;;15.90;;
71303;SDS011;59091;47.446;19.148;2023-09-30T02:30:31;24.15;;;15.65;;
71303;SDS011;59091;47.446;19.148;2023-09-30T02:32:57;22.63;;;15.40;;
71303;SDS011;59091;47.446;19.148;2023-09-30T02:35:22;24.13;;;15.30;;
71303;SDS011;59091;47.446;19.148;2023-09-30T02:37:48;26.63;;;16.17;;
71303;SDS011;59091;47.446;19.148;2023-09-30T02:40:15;27.10;;;15.70;;
71303;SDS011;59091;47.446;19.148;2023-09-30T02:42:42;23.83;;;15.55;;
71303;SDS011;59091;47.446;19.148;2023-09-30T02:45:08;22.38;;;15.95;;
71303;SDS011;59091;47.446;19.148;2023-09-30T02:47:35;23.77;;;15.35;;
71303;SDS011;59091;47.446;19.148;2023-09-30T02:50:02;22.67;;;15.15;;
71303;SDS011;59091;47.446;19.148;2023-09-30T02:52:29;20.50;;;14.02;;
71303;SDS011;59091;47.446;19.148;2023-09-30T02:54:55;20.35;;;14.90;;
71303;SDS011;59091;47.446;19.148;2023-09-30T02:57:22;23.65;;;15.18;;
71303;SDS011;59091;47.446;19.148;2023-09-30T02:59:48;20.40;;;15.32;;
71303;SDS011;59091;47.446;19.148;2023-09-30T03:02:13;20.95;;;14.75;;
71303;SDS011;59091;47.446;19.148;2023-09-30T03:04:40;23.63;;;15.70;;
71303;SDS011;59091;47.446;19.148;2023-09-30T03:07:07;24.15;;;14.70;;
71303;SDS011;59091;47.446;19.148;2023-09-30T03:09:33;23.02;;;15.40;;
71303;SDS011;59091;47.446;19.148;2023-09-30T03:12:00;25.17;;;15.50;;
71303;SDS011;59091;47.446;19.148;2023-09-30T03:14:27;22.90;;;14.80;;
71303;SDS011;59091;47.446;19.148;2023-09-30T03:16:56;26.63;;;15.50;;
71303;SDS011;59091;47.446;19.148;2023-09-30T03:19:22;18.48;;;14.32;;
71303;SDS011;59091;47.446;19.148;2023-09-30T03:21:48;21.48;;;14.88;;
71303;SDS011;59091;47.446;19.148;2023-09-30T03:24:13;21.33;;;15.40;;
71303;SDS011;59091;47.446;19.148;2023-09-30T03:26:38;21.25;;;14.77;;
71303;SDS011;59091;47.446;19.148;2023-09-30T03:29:06;23.08;;;15.75;;
71303;SDS011;59091;47.446;19.148;2023-09-30T03:31:32;21.33;;;15.00;;
71303;SDS011;59091;47.446;19.148;2023-09-30T03:33:57;24.48;;;15.75;;
71303;SDS011;59091;47.446;19.148;2023-09-30T03:36:23;25.50;;;15.00;;
71303;SDS011;59091;47.446;19.148;2023-09-30T03:38:52;22.73;;;15.70;;
71303;SDS011;59091;47.446;19.148;2023-09-30T03:41:24;23.58;;;16.05;;
71303;SDS011;59091;47.446;19.148;2023-09-30T03:43:49;23.13;;;15.43;;
71303;SDS011;59091;47.446;19.148;2023-09-30T03:46:15;22.83;;;15.93;;
71303;SDS011;59091;47.446;19.148;2023-09-30T03:48:41;26.95;;;16.42;;
71303;SDS011;59091;47.446;19.148;2023-09-30T03:53:44;25.65;;;17.63;;
71303;SDS011;59091;47.446;19.148;2023-09-30T03:56:10;26.27;;;16.55;;
71303;SDS011;59091;47.446;19.148;2023-09-30T03:58:39;25.73;;;17.38;;
71303;SDS011;59091;47.446;19.148;2023-09-30T04:01:06;22.23;;;15.73;;
71303;SDS011;59091;47.446;19.148;2023-09-30T04:03:32;22.65;;;15.88;;
71303;SDS011;59091;47.446;19.148;2023-09-30T04:05:58;26.92;;;15.90;;
71303;SDS011;59091;47.446;19.148;2023-09-30T04:08:24;23.25;;;16.25;;
71303;SDS011;59091;47.446;19.148;2023-09-30T04:10:49;22.95;;;16.33;;
71303;SDS011;59091;47.446;19.148;2023-09-30T04:13:15;24.42;;;15.57;;
71303;SDS011;59091;47.446;19.148;2023-09-30T04:15:40;24.48;;;15.70;;
71303;SDS011;59091;47.446;19.148;2023-09-30T04:18:06;24.88;;;16.30;;
71303;SDS011;59091;47.446;19.148;2023-09-30T04:20:31;21.83;;;15.88;;
71303;SDS011;59091;47.446;19.148;2023-09-30T04:22:57;22.08;;;16.05;;
71303;SDS011;59091;47.446;19.148;2023-09-30T04:25:23;23.60;;;16.52;;
71303;SDS011;59091;47.446;19.148;2023-09-30T04:27:49;23.33;;;15.65;;
71303;SDS011;59091;47.446;19.148;2023-09-30T04:30:15;22.95;;;16.40;;
71303;SDS011;59091;47.446;19.148;2023-09-30T04:32:42;24.83;;;16.23;;
71303;SDS011;59091;47.446;19.148;2023-09-30T04:35:08;20.40;;;14.95;;
71303;SDS011;59091;47.446;19.148;2023-09-30T04:37:34;22.70;;;15.88;;
71303;SDS011;59091;47.446;19.148;2023-09-30T04:40:01;22.27;;;15.77;;
71303;SDS011;59091;47.446;19.148;2023-09-30T04:42:36;22.08;;;13.95;;
71303;SDS011;59091;47.446;19.148;2023-09-30T04:45:04;22.75;;;15.00;;
71303;SDS011;59091;47.446;19.148;2023-09-30T04:47:34;20.80;;;14.77;;
71303;SDS011;59091;47.446;19.148;2023-09-30T04:50:00;19.00;;;14.65;;
71303;SDS011;59091;47.446;19.148;2023-09-30T04:52:29;20.98;;;14.43;;
71303;SDS011;59091;47.446;19.148;2023-09-30T04:54:56;29.42;;;14.07;;
71303;SDS011;59091;47.446;19.148;2023-09-30T04:57:21;27.23;;;15.23;;
71303;SDS011;59091;47.446;19.148;2023-09-30T04:59:47;24.08;;;14.68;;
71303;SDS011;59091;47.446;19.148;2023-09-30T05:02:12;22.80;;;14.77;;
71303;SDS011;59091;47.446;19.148;2023-09-30T05:04:40;22.70;;;14.57;;
71303;SDS011;59091;47.446;19.148;2023-09-30T05:07:07;21.85;;;14.27;;
71303;SDS011;59091;47.446;19.148;2023-09-30T05:09:32;24.00;;;14.18;;
71303;SDS011;59091;47.446;19.148;2023-09-30T05:11:58;17.25;;;13.10;;
71303;SDS011;59091;47.446;19.148;2023-09-30T05:14:23;19.63;;;13.25;;
71303;SDS011;59091;47.446;19.148;2023-09-30T05:16:49;18.35;;;13.50;;
71303;SDS011;59091;47.446;19.148;2023-09-30T05:19:14;19.35;;;14.05;;
71303;SDS011;59091;47.446;19.148;2023-09-30T05:21:40;23.80;;;14.18;;
71303;SDS011;59091;47.446;19.148;2023-09-30T05:24:06;19.48;;;13.80;;
71303;SDS011;59091;47.446;19.148;2023-09-30T05:26:32;17.65;;;13.80;;
71303;SDS011;59091;47.446;19.148;2023-09-30T05:28:58;21.98;;;14.27;;
71303;SDS011;59091;47.446;19.148;2023-09-30T05:31:24;19.10;;;13.60;;
71303;SDS011;59091;47.446;19.148;2023-09-30T05:33:50;25.13;;;14.27;;
71303;SDS011;59091;47.446;19.148;2023-09-30T05:36:15;21.17;;;14.10;;
71303;SDS011;59091;47.446;19.148;2023-09-30T05:38:41;21.63;;;14.75;;
71303;SDS011;59091;47.446;19.148;2023-09-30T05:41:07;23.67;;;14.65;;
71303;SDS011;59091;47.446;19.148;2023-09-30T05:43:32;21.17;;;14.50;;
71303;SDS011;59091;47.446;19.148;2023-09-30T05:45:58;22.10;;;14.00;;
71303;SDS011;59091;47.446;19.148;2023-09-30T05:48:23;24.70;;;14.73;;
71303;SDS011;59091;47.446;19.148;2023-09-30T05:50:49;19.80;;;13.60;;
71303;SDS011;59091;47.446;19.148;2023-09-30T05:53:14;26.60;;;14.35;;
71303;SDS011;59091;47.446;19.148;2023-09-30T05:55:40;20.77;;;13.23;;
71303;SDS011;59091;47.446;19.148;2023-09-30T05:58:12;17.20;;;13.10;;
71303;SDS011;59091;47.446;19.148;2023-09-30T06:00:39;17.60;;;13.23;;
71303;SDS011;59091;47.446;19.148;2023-09-30T06:03:07;19.65;;;13.60;;
71303;SDS011;59091;47.446;19.148;2023-09-30T06:05:32;21.67;;;12.93;;
71303;SDS011;59091;47.446;19.148;2023-09-30T06:07:59;20.23;;;13.38;;
71303;SDS011;59091;47.446;19.148;2023-09-30T06:10:29;17.55;;;12.70;;
71303;SDS011;59091;47.446;19.148;2023-09-30T06:12:55;18.48;;;12.52;;
71303;SDS011;59091;47.446;19.148;2023-09-30T06:15:22;16.65;;;11.32;;
71303;SDS011;59091;47.446;19.148;2023-09-30T06:17:51;20.25;;;12.23;;
71303;SDS011;59091;47.446;19.148;2023-09-30T06:20:17;16.02;;;12.43;;
71303;SDS011;59091;47.446;19.148;2023-09-30T06:22:44;21.27;;;12.38;;
71303;SDS011;59091;47.446;19.148;2023-09-30T06:25:11;17.65;;;12.98;;
71303;SDS011;59091;47.446;19.148;2023-09-30T06:27:38;18.08;;;11.98;;
71303;SDS011;59091;47.446;19.148;2023-09-30T06:30:03;18.30;;;11.60;;
71303;SDS011;59091;47.446;19.148;2023-09-30T06:32:30;18.90;;;11.10;;
71303;SDS011;59091;47.446;19.148;2023-09-30T06:34:56;19.90;;;10.75;;
71303;SDS011;59091;47.446;19.148;2023-09-30T06:37:21;15.32;;;9.88;;
71303;SDS011;59091;47.446;19.148;2023-09-30T06:39:47;13.93;;;10.43;;
71303;SDS011;59091;47.446;19.148;2023-09-30T06:42:13;18.52;;;11.13;;
71303;SDS011;59091;47.446;19.148;2023-09-30T06:44:39;11.85;;;9.38;;
71303;SDS011;59091;47.446;19.148;2023-09-30T06:47:04;15.73;;;10.38;;
71303;SDS011;59091;47.446;19.148;2023-09-30T06:49:33;14.65;;;9.73;;
71303;SDS011;59091;47.446;19.148;2023-09-30T06:51:59;19.10;;;9.85;;
71303;SDS011;59091;47.446;19.148;2023-09-30T06:54:24;21.75;;;9.90;;
71303;SDS011;59091;47.446;19.148;2023-09-30T06:56:50;14.77;;;9.52;;
71303;SDS011;59091;47.446;19.148;2023-09-30T06:59:15;13.65;;;9.98;;
71303;SDS011;59091;47.446;19.148;2023-09-30T07:01:41;16.55;;;10.45;;
71303;SDS011;59091;47.446;19.148;2023-09-30T07:04:06;18.05;;;9.27;;
71303;SDS011;59091;47.446;19.148;2023-09-30T07:06:31;16.08;;;8.85;;
71303;SDS011;59091;47.446;19.148;2023-09-30T07:08:57;14.43;;;8.85;;
71303;SDS011;59091;47.446;19.148;2023-09-30T07:11:29;15.60;;;9.93;;
71303;SDS011;59091;47.446;19.148;2023-09-30T07:13:57;16.92;;;10.52;;
71303;SDS011;59091;47.446;19.148;2023-09-30T07:16:23;22.92;;;11.88;;
71303;SDS011;59091;47.446;19.148;2023-09-30T07:18:48;14.43;;;10.82;;
71303;SDS011;59091;47.446;19.148;2023-09-30T07:21:15;21.80;;;9.68;;
71303;SDS011;59091;47.446;19.148;2023-09-30T07:23:41;16.50;;;9.70;;
71303;SDS011;59091;47.446;19.148;2023-09-30T07:26:06;20.48;;;11.23;;
71303;SDS011;59091;47.446;19.148;2023-09-30T07:28:32;20.48;;;10.85;;
71303;SDS011;59091;47.446;19.148;2023-09-30T07:30:58;19.83;;;10.52;;
71303;SDS011;59091;47.446;19.148;2023-09-30T07:33:23;21.27;;;11.35;;
71303;SDS011;59091;47.446;19.148;2023-09-30T07:35:49;20.08;;;10.10;;
71303;SDS011;59091;47.446;19.148;2023-09-30T07:38:14;16.50;;;8.77;;
71303;SDS011;59091;47.446;19.148;2023-09-30T07:40:40;21.02;;;8.82;;
71303;SDS011;59091;47.446;19.148;2023-09-30T07:43:06;16.40;;;9.57;;
71303;SDS011;59091;47.446;19.148;2023-09-30T07:45:31;21.75;;;10.77;;
71303;SDS011;59091;47.446;19.148;2023-09-30T07:47:57;15.45;;;9.32;;
71303;SDS011;59091;47.446;19.148;2023-09-30T07:50:23;19.70;;;11.73;;
71303;SDS011;59091;47.446;19.148;2023-09-30T07:52:49;26.05;;;12.48;;
71303;SDS011;59091;47.446;19.148;2023-09-30T07:55:15;17.63;;;12.18;;
71303;SDS011;59091;47.446;19.148;2023-09-30T07:57:41;23.75;;;12.32;;
71303;SDS011;59091;47.446;19.148;2023-09-30T08:00:11;17.67;;;9.65;;
71303;SDS011;59091;47.446;19.148;2023-09-30T08:02:40;16.88;;;10.07;;
71303;SDS011;59091;47.446;19.148;2023-09-30T08:05:06;14.40;;;10.50;;
71303;SDS011;59091;47.446;19.148;2023-09-30T08:07:33;20.85;;;11.48;;
71303;SDS011;59091;47.446;19.148;2023-09-30T08:09:59;17.23;;;11.05;;
71303;SDS011;59091;47.446;19.148;2023-09-30T08:12:24;18.05;;;11.82;;
71303;SDS011;59091;47.446;19.148;2023-09-30T08:14:50;23.45;;;11.70;;
71303;SDS011;59091;47.446;19.148;2023-09-30T08:17:16;20.35;;;10.82;;
71303;SDS011;59091;47.446;19.148;2023-09-30T08:19:42;15.77;;;9.10;;
71303;SDS011;59091;47.446;19.148;2023-09-30T08:22:09;13.07;;;9.70;;
71303;SDS011;59091;47.446;19.148;2023-09-30T08:24:34;19.13;;;10.68;;
71303;SDS011;59091;47.446;19.148;2023-09-30T08:27:00;16.08;;;8.70;;
71303;SDS011;59091;47.446;19.148;2023-09-30T08:29:26;11.85;;;9.05;;
71303;SDS011;59091;47.446;19.148;2023-09-30T08:31:51;21.10;;;9.38;;
71303;SDS011;59091;47.446;19.148;2023-09-30T08:34:18;18.42;;;8.90;;
71303;SDS011;59091;47.446;19.148;2023-09-30T08:36:46;11.90;;;8.70;;
71303;SDS011;59091;47.446;19.148;2023-09-30T08:39:11;13.55;;;8.73;;
71303;SDS011;59091;47.446;19.148;2023-09-30T08:41:37;15.43;;;8.60;;
71303;SDS011;59091;47.446;19.148;2023-09-30T08:44:03;15.20;;;8.70;;
71303;SDS011;59091;47.446;19.148;2023-09-30T08:46:30;17.05;;;8.73;;
71303;SDS011;59091;47.446;19.148;2023-09-30T08:48:57;15.90;;;8.88;;
71303;SDS011;59091;47.446;19.148;2023-09-30T08:51:24;15.15;;;9.80;;
71303;SDS011;59091;47.446;19.148;2023-09-30T08:53:50;12.20;;;8.82;;
71303;SDS011;59091;47.446;19.148;2023-09-30T08:56:19;17.13;;;8.23;;
71303;SDS011;59091;47.446;19.148;2023-09-30T08:58:48;12.65;;;8.98;;
71303;SDS011;59091;47.446;19.148;2023-09-30T09:01:13;18.80;;;8.10;;
71303;SDS011;59091;47.446;19.148;2023-09-30T09:03:39;17.88;;;8.63;;
71303;SDS011;59091;47.446;19.148;2023-09-30T09:06:05;20.30;;;7.80;;
71303;SDS011;59091;47.446;19.148;2023-09-30T09:08:31;16.50;;;7.13;;
71303;SDS011;59091;47.446;19.148;2023-09-30T09:10:57;12.38;;;6.20;;
71303;SDS011;59091;47.446;19.148;2023-09-30T09:13:25;17.63;;;5.97;;
71303;SDS011;59091;47.446;19.148;2023-09-30T09:16:07;17.08;;;6.20;;
71303;SDS011;59091;47.446;19.148;2023-09-30T09:18:33;15.80;;;5.75;;
71303;SDS011;59091;47.446;19.148;2023-09-30T09:21:07;14.02;;;6.15;;
71303;SDS011;59091;47.446;19.148;2023-09-30T09:23:40;10.57;;;6.45;;
71303;SDS011;59091;47.446;19.148;2023-09-30T09:26:07;10.68;;;6.60;;
71303;SDS011;59091;47.446;19.148;2023-09-30T09:28:34;10.70;;;5.90;;
71303;SDS011;59091;47.446;19.148;2023-09-30T09:31:23;23.05;;;5.88;;
71303;SDS011;59091;47.446;19.148;2023-09-30T09:33:51;15.38;;;6.80;;
71303;SDS011;59091;47.446;19.148;2023-09-30T09:36:18;10.90;;;6.20;;
71303;SDS011;59091;47.446;19.148;2023-09-30T09:38:50;11.43;;;6.15;;
71303;SDS011;59091;47.446;19.148;2023-09-30T09:41:22;7.03;;;5.80;;
71303;SDS011;59091;47.446;19.148;2023-09-30T09:43:49;12.68;;;5.97;;
71303;SDS011;59091;47.446;19.148;2023-09-30T09:46:15;16.80;;;7.72;;
71303;SDS011;59091;47.446;19.148;2023-09-30T09:48:42;14.98;;;7.68;;
71303;SDS011;59091;47.446;19.148;2023-09-30T09:51:11;9.75;;;6.95;;
71303;SDS011;59091;47.446;19.148;2023-09-30T09:53:38;13.85;;;7.43;;
71303;SDS011;59091;47.446;19.148;2023-09-30T09:56:06;18.63;;;13.05;;
71303;SDS011;59091;47.446;19.148;2023-09-30T09:58:34;17.27;;;11.10;;
71303;SDS011;59091;47.446;19.148;2023-09-30T10:01:03;16.25;;;9.57;;
71303;SDS011;59091;47.446;19.148;2023-09-30T10:03:31;9.27;;;6.88;;
71303;SDS011;59091;47.446;19.148;2023-09-30T10:05:57;11.48;;;6.40;;
71303;SDS011;59091;47.446;19.148;2023-09-30T10:08:29;11.65;;;6.63;;
71303;SDS011;59091;47.446;19.148;2023-09-30T10:11:01;13.60;;;7.25;;
71303;SDS011;59091;47.446;19.148;2023-09-30T10:16:49;16.02;;;7.68;;
71303;SDS011;59091;47.446;19.148;2023-09-30T10:24:41;7.55;;;5.65;;
71303;SDS011;59091;47.446;19.148;2023-09-30T10:29:47;8.23;;;5.80;;
71303;SDS011;59091;47.446;19.148;2023-09-30T10:32:14;7.93;;;5.70;;
71303;SDS011;59091;47.446;19.148;2023-09-30T10:34:47;11.73;;;5.60;;
71303;SDS011;59091;47.446;19.148;2023-09-30T10:37:20;11.70;;;5.80;;
71303;SDS011;59091;47.446;19.148;2023-09-30T10:39:58;15.90;;;6.25;;
71303;SDS011;59091;47.446;19.148;2023-09-30T10:51:21;7.32;;;5.53;;
71303;SDS011;59091;47.446;19.148;2023-09-30T10:53:47;10.00;;;5.70;;
71303;SDS011;59091;47.446;19.148;2023-09-30T10:56:17;9.32;;;5.53;;
71303;SDS011;59091;47.446;19.148;2023-09-30T10:58:50;8.70;;;5.45;;
71303;SDS011;59091;47.446;19.148;2023-09-30T11:01:17;8.30;;;5.93;;
71303;SDS011;59091;47.446;19.148;2023-09-30T11:03:44;14.55;;;6.38;;
71303;SDS011;59091;47.446;19.148;2023-09-30T11:06:14;9.35;;;6.05;;
71303;SDS011;59091;47.446;19.148;2023-09-30T11:11:39;8.63;;;5.63;;
71303;SDS011;59091;47.446;19.148;2023-09-30T11:14:30;10.13;;;5.93;;
71303;SDS011;59091;47.446;19.148;2023-09-30T11:17:00;8.90;;;6.22;;
71303;SDS011;59091;47.446;19.148;2023-09-30T11:19:49;10.30;;;5.93;;
71303;SDS011;59091;47.446;19.148;2023-09-30T11:22:14;11.05;;;5.88;;
71303;SDS011;59091;47.446;19.148;2023-09-30T11:24:40;13.00;;;7.38;;
71303;SDS011;59091;47.446;19.148;2023-09-30T11:27:06;10.68;;;6.40;;
71303;SDS011;59091;47.446;19.148;2023-09-30T11:29:32;12.38;;;6.60;;
71303;SDS011;59091;47.446;19.148;2023-09-30T11:31:58;11.20;;;6.60;;
71303;SDS011;59091;47.446;19.148;2023-09-30T11:34:33;14.15;;;6.55;;
71303;SDS011;59091;47.446;19.148;2023-09-30T11:37:00;13.23;;;6.32;;
71303;SDS011;59091;47.446;19.148;2023-09-30T11:39:30;8.32;;;6.00;;
71303;SDS011;59091;47.446;19.148;2023-09-30T11:41:56;15.38;;;6.60;;
71303;SDS011;59091;47.446;19.148;2023-09-30T11:44:23;9.55;;;6.70;;
71303;SDS011;59091;47.446;19.148;2023-09-30T11:47:02;11.60;;;6.70;;
71303;SDS011;59091;47.446;19.148;2023-09-30T11:49:38;16.45;;;7.30;;
71303;SDS011;59091;47.446;19.148;2023-09-30T11:52:07;10.07;;;6.90;;
71303;SDS011;59091;47.446;19.148;2023-09-30T11:54:35;14.70;;;6.82;;
71303;SDS011;59091;47.446;19.148;2023-09-30T11:57:09;13.75;;;7.00;;
71303;SDS011;59091;47.446;19.148;2023-09-30T11:59:38;8.75;;;6.68;;
71303;SDS011;59091;47.446;19.148;2023-09-30T12:02:07;11.13;;;7.20;;
71303;SDS011;59091;47.446;19.148;2023-09-30T12:04:34;15.02;;;7.20;;
71303;SDS011;59091;47.446;19.148;2023-09-30T12:07:00;9.98;;;6.75;;
71303;SDS011;59091;47.446;19.148;2023-09-30T12:09:25;14.80;;;7.07;;
71303;SDS011;59091;47.446;19.148;2023-09-30T12:11:52;14.43;;;7.60;;
71303;SDS011;59091;47.446;19.148;2023-09-30T12:14:18;17.70;;;7.97;;
71303;SDS011;59091;47.446;19.148;2023-09-30T12:16:45;11.23;;;6.63;;
71303;SDS011;59091;47.446;19.148;2023-09-30T12:19:12;12.73;;;7.70;;
71303;SDS011;59091;47.446;19.148;2023-09-30T12:21:39;14.45;;;7.03;;
71303;SDS011;59091;47.446;19.148;2023-09-30T12:24:05;14.18;;;7.47;;
71303;SDS011;59091;47.446;19.148;2023-09-30T12:26:32;15.43;;;7.47;;
71303;SDS011;59091;47.446;19.148;2023-09-30T12:28:58;12.15;;;7.40;;
71303;SDS011;59091;47.446;19.148;2023-09-30T12:31:24;14.02;;;7.20;;
71303;SDS011;59091;47.446;19.148;2023-09-30T12:33:50;11.88;;;7.30;;
71303;SDS011;59091;47.446;19.148;2023-09-30T12:36:17;11.23;;;7.55;;
71303;SDS011;59091;47.446;19.148;2023-09-30T12:38:43;16.17;;;7.63;;
71303;SDS011;59091;47.446;19.148;2023-09-30T12:41:09;11.75;;;7.97;;
71303;SDS011;59091;47.446;19.148;2023-09-30T12:43:35;18.08;;;7.60;;
71303;SDS011;59091;47.446;19.148;2023-09-30T12:46:00;14.13;;;8.05;;
71303;SDS011;59091;47.446;19.148;2023-09-30T12:48:26;17.55;;;7.70;;
71303;SDS011;59091;47.446;19.148;2023-09-30T12:50:51;11.85;;;7.80;;
71303;SDS011;59091;47.446;19.148;2023-09-30T12:53:17;15.10;;;8.00;;
71303;SDS011;59091;47.446;19.148;2023-09-30T12:55:42;12.73;;;7.47;;
71303;SDS011;59091;47.446;19.148;2023-09-30T12:58:08;18.70;;;8.43;;
71303;SDS011;59091;47.446;19.148;2023-09-30T13:00:34;28.55;;;8.68;;
71303;SDS011;59091;47.446;19.148;2023-09-30T13:03:00;13.00;;;9.30;;
71303;SDS011;59091;47.446;19.148;2023-09-30T13:05:27;15.20;;;8.95;;
71303;SDS011;59091;47.446;19.148;2023-09-30T13:07:54;17.05;;;8.45;;
71303;SDS011;59091;47.446;19.148;2023-09-30T13:10:20;17.13;;;9.30;;
71303;SDS011;59091;47.446;19.148;2023-09-30T13:12:47;14.05;;;8.18;;
71303;SDS011;59091;47.446;19.148;2023-09-30T13:15:14;14.95;;;8.88;;
71303;SDS011;59091;47.446;19.148;2023-09-30T13:17:41;14.00;;;8.68;;
71303;SDS011;59091;47.446;19.148;2023-09-30T13:20:07;14.00;;;8.57;;
71303;SDS011;59091;47.446;19.148;2023-09-30T13:22:34;13.10;;;9.13;;
71303;SDS011;59091;47.446;19.148;2023-09-30T13:25:03;19.80;;;9.00;;
71303;SDS011;59091;47.446;19.148;2023-09-30T13:27:30;16.17;;;9.02;;
71303;SDS011;59091;47.446;19.148;2023-09-30T13:29:56;19.58;;;9.60;;
71303;SDS011;59091;47.446;19.148;2023-09-30T13:32:23;22.52;;;9.57;;
71303;SDS011;59091;47.446;19.148;2023-09-30T13:34:50;16.27;;;8.68;;
71303;SDS011;59091;47.446;19.148;2023-09-30T13:37:16;17.23;;;9.63;;
71303;SDS011;59091;47.446;19.148;2023-09-30T13:39:42;13.00;;;9.10;;
71303;SDS011;59091;47.446;19.148;2023-09-30T13:42:07;16.52;;;9.45;;
71303;SDS011;59091;47.446;19.148;2023-09-30T13:44:33;17.13;;;9.52;;
71303;SDS011;59091;47.446;19.148;2023-09-30T13:46:58;17.15;;;9.00;;
71303;SDS011;59091;47.446;19.148;2023-09-30T13:49:24;16.42;;;8.75;;
71303;SDS011;59091;47.446;19.148;2023-09-30T13:51:50;13.48;;;8.77;;
71303;SDS011;59091;47.446;19.148;2023-09-30T13:54:15;16.63;;;9.15;;
71303;SDS011;59091;47.446;19.148;2023-09-30T13:56:41;14.52;;;9.75;;
71303;SDS011;59091;47.446;19.148;2023-09-30T13:59:07;15.50;;;8.95;;
71303;SDS011;59091;47.446;19.148;2023-09-30T14:01:32;12.70;;;8.82;;
71303;SDS011;59091;47.446;19.148;2023-09-30T14:03:58;15.27;;;8.80;;
71303;SDS011;59091;47.446;19.148;2023-09-30T14:06:23;16.85;;;8.77;;
71303;SDS011;59091;47.446;19.148;2023-09-30T14:08:49;16.45;;;8.68;;
71303;SDS011;59091;47.446;19.148;2023-09-30T14:11:15;17.17;;;9.07;;
71303;SDS011;59091;47.446;19.148;2023-09-30T14:13:42;17.38;;;8.90;;
71303;SDS011;59091;47.446;19.148;2023-09-30T14:16:10;17.45;;;9.15;;
71303;SDS011;59091;47.446;19.148;2023-09-30T14:18:36;15.48;;;8.50;;
71303;SDS011;59091;47.446;19.148;2023-09-30T14:21:04;19.83;;;9.77;;
71303;SDS011;59091;47.446;19.148;2023-09-30T14:23:29;15.75;;;8.40;;
71303;SDS011;59091;47.446;19.148;2023-09-30T14:25:55;13.77;;;8.38;;
71303;SDS011;59091;47.446;19.148;2023-09-30T14:28:21;12.55;;;8.07;;
71303;SDS011;59091;47.446;19.148;2023-09-30T14:30:47;15.15;;;8.82;;
71303;SDS011;59091;47.446;19.148;2023-09-30T14:33:15;108.40;;;55.53;;
71303;SDS011;59091;47.446;19.148;2023-09-30T14:35:41;102.50;;;55.75;;
71303;SDS011;59091;47.446;19.148;2023-09-30T14:38:09;15.88;;;11.00;;
71303;SDS011;59091;47.446;19.148;2023-09-30T14:40:36;14.80;;;10.05;;